Time;durP1;ratioP1;P1;durP2;ratioP2;P2;SDS_P1;SDS_P2;PMS_P1;PMS_P2;Temp;Humidity;BMP_temperature;BMP_pressure;BME280_temperature;BME280_humidity;BME280_pressure;Samples;Min_cycle;Max_cycle;Signal;HPM_P1;HPM_P2
2023/08/21 00:01:01;;;;;;;;;;;19.60;82.00;;;;;;5004071;28;19914;-86
2023/08/21 00:03:26;;;;;;;;;;;19.60;81.80;;;;;;4982478;28;19997;-86
2023/08/21 00:05:52;;;;;;;;;;;19.60;79.10;;;;;;4976951;28;20008;-86
2023/08/21 00:08:17;;;;;;;;;;;19.60;79.80;;;;;;4979933;28;20373;-86
2023/08/21 00:10:43;;;;;;;;;;;19.60;80.00;;;;;;4984447;28;19937;-86
2023/08/21 00:13:08;;;;;;;;;;;19.60;79.20;;;;;;4993009;28;19913;-85
2023/08/21 00:15:35;;;;;;;;;;;19.80;78.30;;;;;;4983384;28;19917;-85
2023/08/21 00:18:00;;;;;;;;;;;19.80;78.50;;;;;;4989987;28;19914;-85
2023/08/21 00:20:26;;;;;;;;;;;19.90;77.50;;;;;;4992775;28;20494;-85
2023/08/21 00:22:51;;;;;;;;;;;19.90;77.70;;;;;;4979866;28;19994;-86
2023/08/21 00:25:17;;;;;;;;;;;19.70;79.20;;;;;;4987621;28;19914;-85
2023/08/21 00:27:42;;;;;;;;;;;19.70;80.00;;;;;;4990838;28;20413;-85
2023/08/21 00:30:08;;;;;;;;;;;19.60;79.70;;;;;;4999006;28;19949;-86
2023/08/21 00:32:34;;;;;;;;;;;19.60;80.20;;;;;;4987935;28;19910;-86
2023/08/21 00:34:59;;;;;;;;;;;19.60;80.20;;;;;;4992460;28;20373;-85
2023/08/21 00:37:25;;;;;;;;;;;19.50;81.00;;;;;;4985466;28;19984;-86
2023/08/21 00:39:50;;;;;;;;;;;19.50;81.50;;;;;;4984550;28;19910;-86
2023/08/21 00:42:16;;;;;;;;;;;19.40;81.50;;;;;;4990095;28;19921;-87
2023/08/21 00:44:41;;;;;;;;;;;19.40;81.70;;;;;;4991131;28;19972;-85
2023/08/21 00:47:07;;;;;;;;;;;19.40;82.10;;;;;;4990371;28;20016;-85
2023/08/21 00:49:33;;;;;;;;;;;19.30;82.30;;;;;;4984934;28;19953;-85
2023/08/21 00:51:59;;;;;;;;;;;19.30;81.80;;;;;;4988432;28;20345;-86
2023/08/21 00:54:24;;;;;;;;;;;19.20;82.50;;;;;;4990495;28;19917;-86
2023/08/21 00:56:52;;;;;;;;;;;19.20;82.40;;;;;;4988817;28;19914;-85
2023/08/21 00:59:18;;;;;;;;;;;19.20;81.70;;;;;;4978037;28;19911;-85
2023/08/21 01:01:44;;;;;;;;;;;19.10;82.10;;;;;;4985669;28;20513;-85
2023/08/21 01:04:10;;;;;;;;;;;19.20;82.20;;;;;;4988246;28;19924;-87
2023/08/21 01:06:35;;;;;;;;;;;19.20;82.30;;;;;;4985348;28;19922;-85
2023/08/21 01:09:11;;;;;;;;;;;19.20;82.10;;;;;;4979885;28;19991;-86
2023/08/21 01:11:43;;;;;;;;;;;19.10;82.10;;;;;;4983225;28;20385;-85
2023/08/21 01:14:21;;;;;;;;;;;19.20;81.90;;;;;;4979896;28;19924;-86
2023/08/21 01:16:47;;;;;;;;;;;19.20;80.90;;;;;;4983406;28;19914;-87
2023/08/21 01:19:24;;;;;;;;;;;19.10;81.20;;;;;;4973412;28;19918;-85
2023/08/21 01:21:50;;;;;;;;;;;19.10;81.40;;;;;;4977552;28;20297;-85
2023/08/21 01:24:19;;;;;;;;;;;19.20;81.30;;;;;;4983763;28;19918;-86
2023/08/21 01:26:44;;;;;;;;;;;19.10;81.60;;;;;;4982477;28;19989;-86
2023/08/21 01:29:09;;;;;;;;;;;19.10;81.40;;;;;;4984814;28;19960;-86
2023/08/21 01:31:38;;;;;;;;;;;19.10;81.90;;;;;;4990256;28;19950;-86
2023/08/21 01:34:04;;;;;;;;;;;19.10;82.10;;;;;;4983730;28;19910;-86
2023/08/21 01:36:30;;;;;;;;;;;19.10;82.30;;;;;;4977298;28;19921;-86
2023/08/21 01:38:56;;;;;;;;;;;19.00;82.50;;;;;;4979194;28;19914;-85
2023/08/21 01:41:25;;;;;;;;;;;19.00;82.60;;;;;;4984861;28;19949;-86
2023/08/21 01:43:50;;;;;;;;;;;19.00;82.50;;;;;;4983907;28;19937;-85
2023/08/21 01:46:15;;;;;;;;;;;18.90;82.80;;;;;;4983512;28;20370;-88
2023/08/21 01:48:41;;;;;;;;;;;18.90;83.10;;;;;;4990166;28;19997;-87
2023/08/21 01:51:06;;;;;;;;;;;18.80;83.50;;;;;;4979167;28;19945;-86
2023/08/21 01:53:32;;;;;;;;;;;18.70;83.50;;;;;;4991831;28;20182;-86
2023/08/21 01:55:57;;;;;;;;;;;18.70;83.50;;;;;;4981702;28;19918;-87
2023/08/21 01:58:23;;;;;;;;;;;18.70;83.70;;;;;;4985101;28;20004;-88
2023/08/21 02:00:48;;;;;;;;;;;18.60;83.80;;;;;;4992779;28;19910;-86
2023/08/21 02:03:14;;;;;;;;;;;18.60;84.20;;;;;;4980620;28;20009;-86
2023/08/21 02:05:40;;;;;;;;;;;18.60;84.20;;;;;;4991772;28;19918;-86
2023/08/21 02:08:10;;;;;;;;;;;18.60;84.20;;;;;;4986515;28;20382;-88
2023/08/21 02:10:35;;;;;;;;;;;18.60;84.20;;;;;;4986469;28;19933;-90
2023/08/21 02:13:01;;;;;;;;;;;18.60;84.10;;;;;;5010718;23;19925;-85
2023/08/21 02:15:26;;;;;;;;;;;18.50;84.30;;;;;;4993622;28;19926;-86
2023/08/21 02:17:51;;;;;;;;;;;18.50;84.20;;;;;;4995270;28;19932;-86
2023/08/21 02:20:17;;;;;;;;;;;18.50;84.50;;;;;;5008566;28;19922;-85
2023/08/21 02:22:43;;;;;;;;;;;18.50;84.40;;;;;;5009178;28;19902;-85
2023/08/21 02:25:08;;;;;;;;;;;18.50;84.50;;;;;;5014519;28;19910;-86
2023/08/21 02:27:34;;;;;;;;;;;18.50;84.70;;;;;;4995087;28;19921;-86
2023/08/21 02:29:59;;;;;;;;;;;18.50;84.70;;;;;;4995246;28;19910;-86
2023/08/21 02:32:25;;;;;;;;;;;18.50;84.80;;;;;;4991745;28;19968;-86
2023/08/21 02:34:50;;;;;;;;;;;18.50;85.20;;;;;;4994282;28;19921;-86
2023/08/21 02:37:16;;;;;;;;;;;18.50;84.70;;;;;;4997186;28;19914;-86
2023/08/21 02:39:41;;;;;;;;;;;18.50;84.30;;;;;;4994083;28;19917;-86
2023/08/21 02:42:06;;;;;;;;;;;18.50;84.60;;;;;;4997043;28;20005;-86
2023/08/21 02:44:32;;;;;;;;;;;18.40;84.70;;;;;;4989289;28;19922;-86
2023/08/21 02:46:57;;;;;;;;;;;18.50;84.60;;;;;;4980401;28;19914;-86
2023/08/21 02:49:23;;;;;;;;;;;18.50;84.80;;;;;;4996267;28;19932;-87
2023/08/21 02:51:48;;;;;;;;;;;18.50;84.50;;;;;;4991328;28;19949;-86
2023/08/21 02:54:14;;;;;;;;;;;18.50;84.40;;;;;;4991054;28;20399;-86
2023/08/21 02:56:39;;;;;;;;;;;18.50;84.40;;;;;;4994376;28;19921;-86
2023/08/21 02:59:05;;;;;;;;;;;18.50;84.20;;;;;;4991053;28;19925;-86
2023/08/21 03:01:30;;;;;;;;;;;18.50;84.10;;;;;;4991321;28;19960;-86
2023/08/21 03:03:55;;;;;;;;;;;18.50;84.30;;;;;;4993780;28;20272;-86
2023/08/21 03:06:21;;;;;;;;;;;18.50;84.20;;;;;;4994090;28;19921;-86
2023/08/21 03:08:46;;;;;;;;;;;18.50;84.40;;;;;;4994867;28;20005;-86
2023/08/21 03:11:12;;;;;;;;;;;18.50;84.40;;;;;;4995235;28;19948;-86
2023/08/21 03:13:38;;;;;;;;;;;18.50;84.40;;;;;;4995331;28;19918;-86
2023/08/21 03:16:03;;;;;;;;;;;18.50;84.30;;;;;;4994934;28;20392;-85
2023/08/21 03:18:30;;;;;;;;;;;18.50;84.50;;;;;;5017530;28;20004;-86
2023/08/21 03:20:56;;;;;;;;;;;18.50;84.70;;;;;;5004057;28;19921;-86
2023/08/21 03:23:21;;;;;;;;;;;18.50;84.20;;;;;;4992476;28;20371;-86
2023/08/21 03:25:47;;;;;;;;;;;18.50;83.60;;;;;;4987904;28;19929;-86
2023/08/21 03:28:12;;;;;;;;;;;18.50;83.90;;;;;;4994443;28;20407;-87
2023/08/21 03:30:41;;;;;;;;;;;18.60;83.60;;;;;;5002692;28;19918;-88
2023/08/21 03:33:08;;;;;;;;;;;18.50;83.60;;;;;;5007258;28;20511;-87
2023/08/21 03:35:33;;;;;;;;;;;18.50;83.90;;;;;;4993897;28;20712;-87
2023/08/21 03:37:58;;;;;;;;;;;18.50;84.20;;;;;;4993671;28;19918;-87
2023/08/21 03:40:24;;;;;;;;;;;18.40;84.30;;;;;;4996354;28;19921;-89
2023/08/21 03:42:49;;;;;;;;;;;18.30;84.60;;;;;;4994728;28;20395;-88
2023/08/21 03:45:15;;;;;;;;;;;18.40;84.50;;;;;;4995606;28;20302;-87
2023/08/21 03:47:40;;;;;;;;;;;18.30;84.70;;;;;;4993768;28;19976;-87
2023/08/21 03:50:06;;;;;;;;;;;18.20;84.90;;;;;;4995686;28;19909;-88
2023/08/21 03:52:31;;;;;;;;;;;18.20;84.90;;;;;;4993673;28;20318;-88
2023/08/21 03:54:57;;;;;;;;;;;18.20;85.00;;;;;;4994950;28;19913;-87
2023/08/21 03:57:22;;;;;;;;;;;18.30;85.10;;;;;;4994123;28;19921;-87
2023/08/21 03:59:48;;;;;;;;;;;18.20;85.30;;;;;;4988221;28;19921;-85
2023/08/21 04:02:13;;;;;;;;;;;18.10;85.30;;;;;;4988305;28;19922;-85
2023/08/21 04:04:39;;;;;;;;;;;18.10;85.40;;;;;;4998582;28;19977;-85
2023/08/21 04:07:04;;;;;;;;;;;18.10;85.70;;;;;;4991506;28;19922;-85
2023/08/21 04:09:30;;;;;;;;;;;18.10;85.30;;;;;;4994486;28;19965;-84
2023/08/21 04:11:55;;;;;;;;;;;18.10;85.30;;;;;;4994667;28;20075;-85
2023/08/21 04:14:21;;;;;;;;;;;18.10;85.40;;;;;;4993607;28;19918;-85
2023/08/21 04:16:46;;;;;;;;;;;18.10;85.20;;;;;;4996996;28;20359;-85
2023/08/21 04:19:11;;;;;;;;;;;18.10;85.50;;;;;;4993493;28;19917;-87
2023/08/21 04:21:37;;;;;;;;;;;18.00;85.70;;;;;;4993757;28;19925;-87
2023/08/21 04:24:02;;;;;;;;;;;18.00;85.70;;;;;;4993043;28;19937;-87
2023/08/21 04:26:28;;;;;;;;;;;17.90;85.60;;;;;;4994905;28;19963;-88
2023/08/21 04:28:53;;;;;;;;;;;17.90;85.60;;;;;;4993894;28;20403;-87
2023/08/21 04:31:19;;;;;;;;;;;17.90;85.80;;;;;;4988928;28;19920;-86
2023/08/21 04:33:44;;;;;;;;;;;18.00;85.30;;;;;;4995492;28;20252;-86
2023/08/21 04:36:16;;;;;;;;;;;18.00;85.50;;;;;;4993788;28;20307;-85
2023/08/21 04:38:42;;;;;;;;;;;17.90;85.60;;;;;;5010554;28;19913;-85
2023/08/21 04:41:08;;;;;;;;;;;17.90;85.60;;;;;;4992419;28;20028;-85
2023/08/21 04:43:34;;;;;;;;;;;17.90;85.60;;;;;;4995347;28;20056;-84
2023/08/21 04:45:59;;;;;;;;;;;17.90;85.80;;;;;;4992770;28;19973;-85
2023/08/21 04:48:25;;;;;;;;;;;18.00;85.70;;;;;;4993468;28;20354;-86
2023/08/21 04:50:50;;;;;;;;;;;18.10;85.20;;;;;;4993235;28;19920;-85
2023/08/21 04:53:16;;;;;;;;;;;18.30;84.40;;;;;;4996923;28;20276;-85
2023/08/21 04:55:41;;;;;;;;;;;18.50;84.00;;;;;;4995102;28;19913;-85
2023/08/21 04:58:07;;;;;;;;;;;18.50;84.10;;;;;;4997255;28;19964;-86
2023/08/21 05:00:33;;;;;;;;;;;18.50;84.20;;;;;;4987516;28;19913;-85
2023/08/21 05:02:58;;;;;;;;;;;18.50;84.60;;;;;;4996874;28;19916;-86
2023/08/21 05:05:24;;;;;;;;;;;18.60;84.60;;;;;;4986072;28;20295;-86
2023/08/21 05:07:49;;;;;;;;;;;18.50;84.60;;;;;;4992484;28;19922;-86
2023/08/21 05:10:15;;;;;;;;;;;18.60;84.80;;;;;;4990953;28;19940;-86
2023/08/21 05:12:40;;;;;;;;;;;18.60;84.70;;;;;;4991758;28;19914;-85
2023/08/21 05:15:06;;;;;;;;;;;18.60;85.00;;;;;;5002589;28;19921;-86
2023/08/21 05:17:31;;;;;;;;;;;18.70;84.60;;;;;;5016468;28;19901;-86
2023/08/21 05:19:57;;;;;;;;;;;18.80;84.20;;;;;;5009861;28;19906;-86
2023/08/21 05:22:22;;;;;;;;;;;18.70;84.00;;;;;;4993999;28;19934;-86
2023/08/21 05:24:48;;;;;;;;;;;18.70;84.30;;;;;;4991712;28;19984;-86
2023/08/21 05:27:13;;;;;;;;;;;18.60;84.90;;;;;;4986781;28;19921;-86
2023/08/21 05:29:39;;;;;;;;;;;18.60;84.80;;;;;;4991684;28;19901;-86
2023/08/21 05:32:04;;;;;;;;;;;18.60;85.40;;;;;;5011707;28;19917;-86
2023/08/21 05:34:30;;;;;;;;;;;18.60;85.60;;;;;;4997014;28;19934;-86
2023/08/21 05:36:55;;;;;;;;;;;18.50;85.70;;;;;;4989058;28;19913;-87
2023/08/21 05:39:23;;;;;;;;;;;18.50;85.70;;;;;;4992864;28;19920;-87
2023/08/21 05:41:49;;;;;;;;;;;18.50;85.90;;;;;;4983407;28;19942;-86
2023/08/21 05:44:17;;;;;;;;;;;18.60;85.70;;;;;;4990960;28;20017;-87
2023/08/21 05:46:43;;;;;;;;;;;18.60;85.80;;;;;;4996787;28;19901;-89
2023/08/21 05:49:08;;;;;;;;;;;18.60;85.70;;;;;;4999425;28;20020;-87
2023/08/21 05:51:34;;;;;;;;;;;18.70;85.70;;;;;;4988893;28;20383;-87
2023/08/21 05:53:59;;;;;;;;;;;18.70;85.70;;;;;;4990608;28;19964;-89
2023/08/21 05:56:25;;;;;;;;;;;18.80;86.10;;;;;;4991251;28;19949;-88
2023/08/21 05:58:50;;;;;;;;;;;19.00;86.40;;;;;;4991640;28;19913;-89
2023/08/21 06:01:16;;;;;;;;;;;19.00;85.70;;;;;;4986848;28;19924;-89
2023/08/21 06:03:42;;;;;;;;;;;19.10;84.40;;;;;;4985180;28;20012;-88
2023/08/21 06:06:08;;;;;;;;;;;19.40;83.60;;;;;;4987391;28;19922;-88
2023/08/21 06:08:34;;;;;;;;;;;19.50;83.00;;;;;;4982130;28;20379;-87
2023/08/21 06:14:28;;;;;;;;;;;19.60;81.70;;;;;;4928119;29;19919;-86
2023/08/21 06:17:25;;;;;;;;;;;19.60;81.70;;;;;;4998486;28;19922;-89
2023/08/21 06:20:09;;;;;;;;;;;19.60;82.10;;;;;;5006489;28;19902;-88
2023/08/21 06:22:46;;;;;;;;;;;19.80;82.40;;;;;;4999636;28;19917;-87
2023/08/21 06:25:24;;;;;;;;;;;19.90;81.90;;;;;;4981493;28;19922;-86
2023/08/21 06:27:55;;;;;;;;;;;20.00;79.90;;;;;;4991773;28;19918;-91
2023/08/21 06:30:21;;;;;;;;;;;20.00;80.10;;;;;;4995578;28;20008;-86
2023/08/21 06:32:46;;;;;;;;;;;19.90;80.20;;;;;;4991700;28;19956;-87
2023/08/21 06:35:12;;;;;;;;;;;19.80;81.00;;;;;;4989574;28;20020;-84
2023/08/21 06:37:54;;;;;;;;;;;19.80;81.70;;;;;;4993901;28;19914;-90
2023/08/21 06:40:19;;;;;;;;;;;19.80;82.20;;;;;;4989651;28;19961;-84
2023/08/21 06:43:16;;;;;;;;;;;19.90;81.30;;;;;;4992643;28;19979;-83
2023/08/21 06:45:41;;;;;;;;;;;19.80;82.20;;;;;;4997430;28;19972;-84
2023/08/21 06:48:06;;;;;;;;;;;19.90;82.40;;;;;;4998219;28;20330;-84
2023/08/21 06:50:42;;;;;;;;;;;19.90;82.20;;;;;;4999777;28;19916;-84
2023/08/21 06:53:08;;;;;;;;;;;20.00;81.00;;;;;;4998611;28;20375;-84
2023/08/21 06:55:58;;;;;;;;;;;20.10;80.50;;;;;;5003568;28;19916;-84
2023/08/21 06:58:31;;;;;;;;;;;20.30;79.80;;;;;;4997527;28;20020;-84
2023/08/21 07:00:56;;;;;;;;;;;20.30;79.40;;;;;;4999502;28;19918;-84
2023/08/21 07:03:25;;;;;;;;;;;20.50;77.90;;;;;;4998088;28;19910;-84
2023/08/21 07:05:57;;;;;;;;;;;20.40;78.30;;;;;;4999403;28;19914;-84
2023/08/21 07:08:42;;;;;;;;;;;;;;;;;;;;;
2023/08/21 07:11:09;;;;;;;;;;;20.60;78.20;;;;;;4997049;28;19918;-84
2023/08/21 07:13:38;;;;;;;;;;;20.70;77.40;;;;;;4995591;28;19976;-85
2023/08/21 07:16:08;;;;;;;;;;;20.70;77.20;;;;;;4997087;28;19921;-85
2023/08/21 07:18:34;;;;;;;;;;;20.70;77.10;;;;;;4998370;28;19910;-85
2023/08/21 07:21:00;;;;;;;;;;;20.90;75.90;;;;;;4995445;28;20324;-84
2023/08/21 07:23:25;;;;;;;;;;;20.90;76.10;;;;;;4996238;28;19933;-84
2023/08/21 07:25:51;;;;;;;;;;;20.90;76.00;;;;;;4999904;28;19914;-85
2023/08/21 07:28:16;;;;;;;;;;;21.00;76.60;;;;;;4999626;28;20015;-86
2023/08/21 07:30:42;;;;;;;;;;;21.10;76.00;;;;;;4995170;28;19913;-86
2023/08/21 07:33:07;;;;;;;;;;;21.40;74.40;;;;;;4994310;28;19917;-84
2023/08/21 07:35:33;;;;;;;;;;;21.50;74.50;;;;;;4994750;28;19913;-84
2023/08/21 07:37:58;;;;;;;;;;;21.70;74.10;;;;;;4995642;28;19940;-85
2023/08/21 07:40:24;;;;;;;;;;;21.80;72.90;;;;;;4997828;28;19933;-85
2023/08/21 07:42:50;;;;;;;;;;;21.90;72.90;;;;;;4996239;28;19910;-84
2023/08/21 07:45:16;;;;;;;;;;;21.90;72.60;;;;;;5012295;28;19985;-84
2023/08/21 07:47:41;;;;;;;;;;;21.80;73.50;;;;;;5012726;28;19918;-84
2023/08/21 07:50:07;;;;;;;;;;;21.90;72.00;;;;;;4996764;28;19924;-84
2023/08/21 07:52:33;;;;;;;;;;;21.80;73.50;;;;;;4993935;28;19965;-84
2023/08/21 07:55:00;;;;;;;;;;;22.00;70.70;;;;;;4993369;28;20300;-84
2023/08/21 07:57:26;;;;;;;;;;;21.90;70.40;;;;;;4993557;28;19922;-84
2023/08/21 07:59:52;;;;;;;;;;;21.80;70.90;;;;;;4993935;28;20314;-83
2023/08/21 08:02:17;;;;;;;;;;;21.90;70.80;;;;;;4996902;28;19959;-83
2023/08/21 08:04:43;;;;;;;;;;;21.90;70.40;;;;;;4994920;28;19918;-83
2023/08/21 08:07:09;;;;;;;;;;;21.80;71.60;;;;;;4994357;28;20367;-84
2023/08/21 08:09:34;;;;;;;;;;;22.00;71.40;;;;;;4995027;28;19914;-85
2023/08/21 08:12:00;;;;;;;;;;;22.20;70.40;;;;;;4995071;28;19921;-84
2023/08/21 08:14:25;;;;;;;;;;;22.30;69.80;;;;;;4995333;28;19917;-85
2023/08/21 08:16:50;;;;;;;;;;;22.10;70.90;;;;;;5013061;23;20011;-82
2023/08/21 08:19:16;;;;;;;;;;;22.10;69.40;;;;;;4996223;28;20295;-81
2023/08/21 08:21:41;;;;;;;;;;;22.00;69.80;;;;;;4996372;28;20306;-82
2023/08/21 08:24:07;;;;;;;;;;;21.90;71.50;;;;;;4978860;28;20344;-82
2023/08/21 08:26:32;;;;;;;;;;;21.70;73.00;;;;;;4980651;28;19914;-82
2023/08/21 08:28:58;;;;;;;;;;;21.50;74.20;;;;;;4997505;28;19914;-82
2023/08/21 08:31:25;;;;;;;;;;;21.50;75.10;;;;;;4986846;28;19916;-82
2023/08/21 08:33:51;;;;;;;;;;;21.50;75.60;;;;;;4978311;28;19956;-82
2023/08/21 08:36:17;;;;;;;;;;;21.60;74.80;;;;;;4995911;28;19981;-82
2023/08/21 08:38:43;;;;;;;;;;;21.70;74.00;;;;;;4979603;28;20330;-82
2023/08/21 08:41:27;;;;;;;;;;;21.60;73.90;;;;;;4990650;28;20000;-82
2023/08/21 08:43:56;;;;;;;;;;;21.70;74.00;;;;;;4986234;28;19914;-82
2023/08/21 08:46:22;;;;;;;;;;;21.70;73.60;;;;;;4975698;28;19949;-83
2023/08/21 08:48:48;;;;;;;;;;;21.70;75.20;;;;;;4983505;28;19953;-83
2023/08/21 08:51:13;;;;;;;;;;;21.90;73.10;;;;;;4985302;28;20316;-83
2023/08/21 08:53:39;;;;;;;;;;;22.10;71.50;;;;;;4990212;28;19914;-83
2023/08/21 08:56:04;;;;;;;;;;;22.00;71.70;;;;;;4988602;28;20397;-83
2023/08/21 08:58:30;;;;;;;;;;;22.10;71.80;;;;;;4986307;28;19914;-83
2023/08/21 09:00:55;;;;;;;;;;;22.10;72.00;;;;;;4979383;28;19918;-83
2023/08/21 09:03:21;;;;;;;;;;;22.30;70.80;;;;;;4995088;28;19917;-82
2023/08/21 09:05:48;;;;;;;;;;;22.40;70.60;;;;;;4986439;28;19954;-82
2023/08/21 09:08:14;;;;;;;;;;;22.40;71.10;;;;;;4993748;28;20315;-82
2023/08/21 09:10:40;;;;;;;;;;;22.30;71.60;;;;;;4994806;28;19925;-82
2023/08/21 09:13:16;;;;;;;;;;;22.20;72.40;;;;;;4990876;28;19914;-82
2023/08/21 09:15:52;;;;;;;;;;;22.10;73.10;;;;;;4985158;28;19921;-83
2023/08/21 09:18:18;;;;;;;;;;;22.30;71.70;;;;;;4990012;28;19981;-82
2023/08/21 09:20:43;;;;;;;;;;;22.30;71.30;;;;;;4979587;28;20381;-82
2023/08/21 09:23:13;;;;;;;;;;;22.40;70.20;;;;;;4975644;28;20372;-82
2023/08/21 09:25:39;;;;;;;;;;;22.50;69.20;;;;;;4974848;28;19969;-83
2023/08/21 09:28:05;;;;;;;;;;;22.60;69.80;;;;;;4974862;28;19914;-82
2023/08/21 09:30:43;;;;;;;;;;;22.60;69.70;;;;;;4978518;28;19910;-82
2023/08/21 09:33:09;;;;;;;;;;;22.70;68.80;;;;;;4988231;28;19917;-83
2023/08/21 09:35:35;;;;;;;;;;;22.70;69.30;;;;;;5002626;28;19917;-82
2023/08/21 09:38:00;;;;;;;;;;;22.80;68.20;;;;;;4983501;28;19914;-82
2023/08/21 09:40:26;;;;;;;;;;;22.70;67.00;;;;;;4983774;28;19937;-82
2023/08/21 09:42:58;;;;;;;;;;;22.60;68.10;;;;;;4984911;28;19917;-81
2023/08/21 09:45:25;;;;;;;;;;;22.70;66.90;;;;;;5004207;28;19918;-82
2023/08/21 09:47:54;;;;;;;;;;;22.80;68.50;;;;;;4982883;28;19989;-82
2023/08/21 09:50:19;;;;;;;;;;;23.00;65.90;;;;;;4983328;28;19973;-82
2023/08/21 09:52:45;;;;;;;;;;;23.00;67.00;;;;;;4980088;28;19953;-83
2023/08/21 09:55:11;;;;;;;;;;;23.20;66.00;;;;;;4981728;28;19910;-82
2023/08/21 09:57:37;;;;;;;;;;;23.30;66.10;;;;;;4981235;28;19932;-82
2023/08/21 10:00:15;;;;;;;;;;;23.20;66.50;;;;;;4979851;28;20388;-82
2023/08/21 10:02:42;;;;;;;;;;;23.20;67.00;;;;;;4982208;28;19921;-82
2023/08/21 10:05:07;;;;;;;;;;;23.30;65.00;;;;;;4982002;28;19922;-82
2023/08/21 10:07:33;;;;;;;;;;;23.50;64.70;;;;;;4986243;28;19910;-82
2023/08/21 10:09:59;;;;;;;;;;;23.50;66.30;;;;;;4992567;28;19913;-81
2023/08/21 10:12:24;;;;;;;;;;;23.50;66.20;;;;;;4978627;28;19910;-82
2023/08/21 10:14:50;;;;;;;;;;;23.80;66.10;;;;;;4977462;28;19910;-81
2023/08/21 10:17:15;;;;;;;;;;;23.90;65.70;;;;;;4975990;28;19921;-82
2023/08/21 10:19:41;;;;;;;;;;;24.30;63.50;;;;;;4976540;28;19953;-81
2023/08/21 10:22:06;;;;;;;;;;;24.40;63.10;;;;;;4977500;28;19910;-83
2023/08/21 10:24:36;;;;;;;;;;;24.50;63.60;;;;;;4976737;28;19914;-82
2023/08/21 10:27:02;;;;;;;;;;;24.70;63.00;;;;;;4979358;28;19917;-82
2023/08/21 10:29:27;;;;;;;;;;;24.70;63.40;;;;;;4977749;28;19911;-82
2023/08/21 10:32:00;;;;;;;;;;;24.80;62.30;;;;;;4975507;28;20287;-81
2023/08/21 10:34:31;;;;;;;;;;;24.70;62.40;;;;;;4975382;28;19949;-82
2023/08/21 10:36:59;;;;;;;;;;;24.50;63.10;;;;;;4976866;28;19914;-81
2023/08/21 10:39:25;;;;;;;;;;;24.30;64.70;;;;;;4994618;28;20023;-81
2023/08/21 10:41:57;;;;;;;;;;;24.10;64.70;;;;;;4995720;28;19950;-82
2023/08/21 10:44:41;;;;;;;;;;;24.10;64.70;;;;;;4995045;28;20307;-82
2023/08/21 10:47:17;;;;;;;;;;;24.00;66.30;;;;;;4994129;28;19953;-82
2023/08/21 10:49:45;;;;;;;;;;;23.90;66.10;;;;;;4996588;28;19918;-82
2023/08/21 10:52:11;;;;;;;;;;;23.90;65.90;;;;;;4999228;28;20384;-82
2023/08/21 10:54:53;;;;;;;;;;;24.00;66.70;;;;;;4986000;28;19910;-80
2023/08/21 10:57:19;;;;;;;;;;;24.30;64.70;;;;;;4991743;28;19910;-82
2023/08/21 10:59:56;;;;;;;;;;;24.50;64.50;;;;;;5000246;28;19921;-82
2023/08/21 11:02:22;;;;;;;;;;;24.60;65.60;;;;;;5001837;28;19913;-82
2023/08/21 11:04:48;;;;;;;;;;;24.70;64.50;;;;;;5001443;28;19917;-82
2023/08/21 11:07:14;;;;;;;;;;;25.00;62.90;;;;;;5000645;28;19949;-82
2023/08/21 11:09:39;;;;;;;;;;;25.00;63.70;;;;;;4992209;28;19910;-82
2023/08/21 11:12:06;;;;;;;;;;;25.00;64.80;;;;;;4977560;28;19922;-82
2023/08/21 11:14:31;;;;;;;;;;;25.20;63.40;;;;;;4987419;28;19910;-82
2023/08/21 11:16:58;;;;;;;;;;;25.30;63.10;;;;;;4986068;28;20048;-82
2023/08/21 11:19:24;;;;;;;;;;;25.10;64.30;;;;;;4985037;28;19977;-82
2023/08/21 11:21:52;;;;;;;;;;;24.90;64.00;;;;;;4999963;28;19910;-82
2023/08/21 11:24:18;;;;;;;;;;;24.90;63.70;;;;;;4983625;28;20431;-82
2023/08/21 11:26:43;;;;;;;;;;;24.80;63.70;;;;;;4982618;28;19910;-82
2023/08/21 11:29:09;;;;;;;;;;;24.80;63.40;;;;;;4982035;28;19918;-82
2023/08/21 11:31:34;;;;;;;;;;;24.90;64.20;;;;;;4995264;28;20283;-82
2023/08/21 11:34:00;;;;;;;;;;;24.90;64.60;;;;;;4982312;28;19910;-82
2023/08/21 11:36:25;;;;;;;;;;;25.00;62.20;;;;;;4981347;28;19921;-82
2023/08/21 11:39:00;;;;;;;;;;;25.10;62.90;;;;;;4977467;28;19917;-82
2023/08/21 11:41:26;;;;;;;;;;;25.20;62.60;;;;;;4975057;28;19922;-82
2023/08/21 11:43:51;;;;;;;;;;;25.20;62.50;;;;;;4987283;28;20292;-82
2023/08/21 11:46:18;;;;;;;;;;;25.10;63.10;;;;;;4998079;28;19914;-81
2023/08/21 11:48:44;;;;;;;;;;;25.10;62.30;;;;;;4994843;28;19964;-81
2023/08/21 11:51:10;;;;;;;;;;;25.00;63.40;;;;;;4995118;28;20004;-81
2023/08/21 11:53:37;;;;;;;;;;;25.00;61.30;;;;;;4994280;28;19952;-81
2023/08/21 11:56:03;;;;;;;;;;;25.10;61.80;;;;;;4994288;28;19910;-81
2023/08/21 11:58:29;;;;;;;;;;;25.20;60.90;;;;;;4994694;28;19913;-82
2023/08/21 12:01:00;;;;;;;;;;;25.20;61.80;;;;;;4993490;28;20419;-81
2023/08/21 12:03:26;;;;;;;;;;;25.40;61.70;;;;;;4993384;28;20407;-82
2023/08/21 12:05:51;;;;;;;;;;;25.50;59.10;;;;;;4992787;28;19921;-81
2023/08/21 12:08:17;;;;;;;;;;;25.40;60.70;;;;;;4994359;28;19917;-81
2023/08/21 12:10:42;;;;;;;;;;;25.50;60.70;;;;;;4993013;28;20419;-81
2023/08/21 12:13:08;;;;;;;;;;;25.40;60.70;;;;;;4990281;28;19939;-81
2023/08/21 12:15:33;;;;;;;;;;;25.40;61.20;;;;;;4973759;28;19911;-81
2023/08/21 12:17:59;;;;;;;;;;;25.50;61.60;;;;;;4992302;28;19918;-81
2023/08/21 12:20:24;;;;;;;;;;;25.60;61.30;;;;;;4979051;28;19921;-81
2023/08/21 12:22:50;;;;;;;;;;;25.70;60.30;;;;;;4980252;28;19953;-80
2023/08/21 12:25:16;;;;;;;;;;;26.00;58.20;;;;;;4982294;28;19925;-81
2023/08/21 12:27:41;;;;;;;;;;;26.00;59.70;;;;;;4983516;28;19914;-81
2023/08/21 12:30:07;;;;;;;;;;;26.00;59.30;;;;;;4998402;28;20048;-82
2023/08/21 12:32:40;;;;;;;;;;;26.10;58.50;;;;;;4995429;28;19914;-82
2023/08/21 12:35:05;;;;;;;;;;;26.00;58.00;;;;;;4995434;28;19960;-81
2023/08/21 12:37:31;;;;;;;;;;;26.00;58.30;;;;;;5002386;28;19961;-81
2023/08/21 12:39:57;;;;;;;;;;;25.80;59.20;;;;;;5000720;28;20052;-82
2023/08/21 12:42:22;;;;;;;;;;;25.70;58.40;;;;;;4999356;28;19966;-81
2023/08/21 12:44:47;;;;;;;;;;;25.80;59.90;;;;;;4993425;28;20391;-82
2023/08/21 12:47:13;;;;;;;;;;;25.60;59.50;;;;;;4990126;28;19918;-82
2023/08/21 12:49:38;;;;;;;;;;;25.60;58.00;;;;;;4990392;28;19921;-82
2023/08/21 12:52:05;;;;;;;;;;;25.50;60.20;;;;;;4989143;28;20247;-83
2023/08/21 12:54:31;;;;;;;;;;;25.60;60.70;;;;;;4993878;28;20329;-82
2023/08/21 12:56:56;;;;;;;;;;;25.60;60.10;;;;;;4989902;28;19929;-84
2023/08/21 12:59:22;;;;;;;;;;;25.60;60.70;;;;;;4987478;28;19914;-83
2023/08/21 13:01:47;;;;;;;;;;;25.70;59.50;;;;;;4990858;28;20438;-82
2023/08/21 13:04:13;;;;;;;;;;;25.60;60.10;;;;;;4991082;28;19918;-82
2023/08/21 13:06:38;;;;;;;;;;;25.60;59.50;;;;;;4984860;28;20007;-82
2023/08/21 13:09:05;;;;;;;;;;;25.90;58.50;;;;;;4974549;28;20380;-84
2023/08/21 13:11:31;;;;;;;;;;;25.90;59.60;;;;;;4989300;28;19914;-82
2023/08/21 13:13:56;;;;;;;;;;;25.70;60.00;;;;;;4990804;28;19968;-82
2023/08/21 13:16:22;;;;;;;;;;;25.80;58.90;;;;;;4988936;28;20284;-82
2023/08/21 13:18:47;;;;;;;;;;;26.00;57.60;;;;;;4987741;28;19914;-82
2023/08/21 13:21:13;;;;;;;;;;;26.00;58.70;;;;;;4986112;28;20394;-83
2023/08/21 13:23:38;;;;;;;;;;;26.00;59.40;;;;;;4979876;28;19949;-82
2023/08/21 13:26:04;;;;;;;;;;;25.90;59.20;;;;;;4988750;28;19921;-82
2023/08/21 13:28:31;;;;;;;;;;;25.90;58.50;;;;;;4982619;28;20375;-82
2023/08/21 13:30:56;;;;;;;;;;;25.90;57.90;;;;;;4990591;28;19936;-82
2023/08/21 13:33:22;;;;;;;;;;;25.80;57.50;;;;;;4973215;28;19914;-82
2023/08/21 13:35:47;;;;;;;;;;;26.00;57.70;;;;;;4984169;28;19914;-82
2023/08/21 13:38:13;;;;;;;;;;;26.10;58.60;;;;;;4987291;28;19972;-83
2023/08/21 13:40:40;;;;;;;;;;;26.10;58.40;;;;;;4983667;28;20053;-82
2023/08/21 13:43:07;;;;;;;;;;;26.20;57.90;;;;;;4988584;28;19918;-82
2023/08/21 13:45:32;;;;;;;;;;;26.30;58.30;;;;;;4980869;28;19941;-82
2023/08/21 13:47:58;;;;;;;;;;;26.10;59.10;;;;;;4976084;28;19910;-83
2023/08/21 13:50:23;;;;;;;;;;;26.10;57.40;;;;;;4983647;28;20354;-83
2023/08/21 13:52:50;;;;;;;;;;;26.00;58.20;;;;;;4977559;28;20343;-84
2023/08/21 13:55:16;;;;;;;;;;;26.00;59.50;;;;;;4987163;28;19957;-83
2023/08/21 13:57:41;;;;;;;;;;;26.00;58.40;;;;;;4988737;28;19918;-82
2023/08/21 14:00:07;;;;;;;;;;;26.00;59.10;;;;;;4982737;28;19992;-83
2023/08/21 14:02:34;;;;;;;;;;;26.20;58.10;;;;;;4981480;28;19972;-84
2023/08/21 14:05:00;;;;;;;;;;;26.60;57.80;;;;;;4993786;28;19918;-83
2023/08/21 14:07:25;;;;;;;;;;;26.70;57.00;;;;;;4993227;28;19914;-83
2023/08/21 14:09:51;;;;;;;;;;;27.00;57.00;;;;;;4992382;28;19945;-83
2023/08/21 14:12:16;;;;;;;;;;;26.80;56.60;;;;;;4988091;28;20295;-83
2023/08/21 14:14:42;;;;;;;;;;;26.80;56.60;;;;;;4985666;28;19952;-83
2023/08/21 14:17:10;;;;;;;;;;;27.00;57.00;;;;;;5014978;23;20267;-90
2023/08/21 14:19:35;;;;;;;;;;;26.90;56.80;;;;;;5006630;28;20439;-89